Rolla, Kansas
Current Conditions -  °F | °C
As of 9:53 PM on Saturday 25 Oct 2014 (Local Time) from KGUY Reporting Station
Clear Clear  
Wind Chill: 21°   Ceiling: Unl
Heat Index: 21°   Visibility: 10mi
Dew Point:   Wind: 12mph
Humidity: 45%   Direction: 190°S
Pressure: 29.98"   Gusts: NA
Location:  37.12°N, 101.63°W
Report Text: KGUY 260253Z AUTO 19010KT 10SM CLR 21/08 A2998 RMK AO2 SLP117 T02060083 58000 $
Loading
Personal Weather Stations






























Interactive Weather Map
Tropical Storm Tracking
New forecast layout! Learn more

10-Day Weather Forecast

Advertisements
Track Severe Weather on mobile